createdAt,value
2017-05-30T00:00:35.717Z,-4.05
2017-05-30T00:01:36.774Z,-4.05
2017-05-30T00:02:31.849Z,-4.05
2017-05-30T00:03:26.849Z,-4.05
2017-05-30T00:04:21.998Z,-4.05
2017-05-30T00:05:22.075Z,-4.05
2017-05-30T00:06:10.070Z,-4.05
2017-05-30T00:07:04.144Z,-4.05
2017-05-30T00:08:04.234Z,-4.05
2017-05-30T00:08:58.275Z,-4.05
2017-05-30T00:09:53.333Z,-4.05
2017-05-30T00:10:48.394Z,-4.05
2017-05-30T00:11:42.471Z,-4.05
2017-05-30T00:12:30.531Z,-4.05
2017-05-30T00:13:18.722Z,-4.05
2017-05-30T00:14:18.676Z,-4.05
2017-05-30T00:15:13.726Z,-4.05
2017-05-30T00:16:02.747Z,-4.05
2017-05-30T00:16:51.853Z,-4.05
2017-05-30T00:17:39.939Z,-4.05
2017-05-30T00:18:34.030Z,-4.05
2017-05-30T00:19:28.046Z,-4.05
2017-05-30T00:20:22.136Z,-4.05
2017-05-30T00:21:16.171Z,-4.05
2017-05-30T00:22:05.236Z,-4.05
2017-05-30T00:22:54.320Z,-4.05
2017-05-30T00:23:48.417Z,-4.05
2017-05-30T00:24:37.433Z,-4.05
2017-05-30T00:25:31.530Z,-4.05
2017-05-30T00:26:25.547Z,-4.05
2017-05-30T00:27:13.687Z,-4.05
2017-05-30T00:28:02.731Z,-4.05
2017-05-30T00:29:02.761Z,-4.05
2017-05-30T00:29:57.855Z,-4.05
2017-05-30T00:30:51.912Z,-4.05
2017-05-30T00:31:47.007Z,-4.05
2017-05-30T00:32:41.026Z,-4.05
2017-05-30T00:33:35.116Z,-4.05
2017-05-30T00:34:30.139Z,-4.05
2017-05-30T00:35:24.541Z,-4.05
2017-05-30T00:36:18.305Z,-4.05
2017-05-30T00:37:06.375Z,-4.05
2017-05-30T00:38:06.412Z,-4.05
2017-05-30T00:38:55.491Z,-4.05
2017-05-30T00:39:49.621Z,-4.05
2017-05-30T00:40:43.639Z,-4.05
2017-05-30T00:41:37.688Z,-4.05
2017-05-30T00:42:31.727Z,-4.05
2017-05-30T00:43:26.824Z,-4.05
2017-05-30T00:44:15.872Z,-4.05
2017-05-30T00:45:09.930Z,-4.05
2017-05-30T00:45:58.988Z,-4.05
2017-05-30T00:46:53.051Z,-4.05
2017-05-30T00:47:42.147Z,-4.05
2017-05-30T00:48:42.166Z,-4.05
2017-05-30T00:49:43.251Z,-4.05
2017-05-30T00:50:37.359Z,-4.05
2017-05-30T00:51:25.348Z,-4.05
2017-05-30T00:52:19.441Z,-4.05
2017-05-30T00:53:14.502Z,-4.06
2017-05-30T00:54:09.531Z,-4.06
2017-05-30T00:55:03.615Z,-4.06
2017-05-30T00:56:03.762Z,-4.06
2017-05-30T00:56:58.731Z,-4.06
2017-05-30T00:57:52.830Z,-4.06
2017-05-30T00:58:46.854Z,-4.06
2017-05-30T00:59:46.934Z,-4.06
2017-05-30T01:00:41.960Z,-4.06
2017-05-30T01:01:37.057Z,-4.06
2017-05-30T01:02:31.079Z,-4.06
2017-05-30T01:03:20.539Z,-4.06
2017-05-30T01:04:14.178Z,-4.06
2017-05-30T01:05:14.239Z,-4.06
2017-05-30T01:06:09.329Z,-4.06
2017-05-30T01:06:58.376Z,-4.06
2017-05-30T01:07:47.436Z,-4.06
2017-05-30T01:08:36.485Z,-4.06
2017-05-30T01:09:25.542Z,-4.06
2017-05-30T01:10:13.635Z,-4.06
2017-05-30T01:11:08.622Z,-4.06
2017-05-30T01:12:03.823Z,-4.06
2017-05-30T01:12:58.747Z,-4.06
2017-05-30T01:13:52.752Z,-4.06
2017-05-30T01:14:46.802Z,-4.06
2017-05-30T01:15:40.895Z,-4.06
2017-05-30T01:16:35.931Z,-4.06
2017-05-30T01:17:31.014Z,-4.06
2017-05-30T01:18:20.069Z,-4.06
2017-05-30T01:19:09.093Z,-4.06
2017-05-30T01:20:09.123Z,-4.06
2017-05-30T01:21:03.166Z,-4.06
2017-05-30T01:21:57.214Z,-4.06
2017-05-30T01:22:46.246Z,-4.06
2017-05-30T01:23:41.390Z,-4.06
2017-05-30T01:24:36.432Z,-4.06
2017-05-30T01:25:36.464Z,-4.06
2017-05-30T01:26:36.506Z,-4.06
2017-05-30T01:27:25.563Z,-4.06
2017-05-30T01:28:19.721Z,-4.06
2017-05-30T01:29:13.670Z,-4.06
2017-05-30T01:30:08.977Z,-4.06
2017-05-30T01:30:57.775Z,-4.06
2017-05-30T01:31:46.861Z,-4.06
2017-05-30T01:32:40.944Z,-4.06
2017-05-30T01:33:35.961Z,-4.06
2017-05-30T01:34:30.078Z,-4.06
2017-05-30T01:35:19.480Z,-4.06
2017-05-30T01:36:08.122Z,-4.06
2017-05-30T01:36:57.211Z,-4.06
2017-05-30T01:37:57.310Z,-4.06
2017-05-30T01:38:58.350Z,-4.06
2017-05-30T01:39:47.433Z,-4.06
2017-05-30T01:40:41.474Z,-4.06
2017-05-30T01:41:35.528Z,-4.06
2017-05-30T01:42:24.583Z,-4.06
2017-05-30T01:43:19.007Z,-4.06
2017-05-30T01:44:12.721Z,-4.05
2017-05-30T01:45:02.040Z,-4.05
2017-05-30T01:45:55.749Z,-4.05
2017-05-30T01:46:49.836Z,-4.05
2017-05-30T01:47:38.907Z,-4.05
2017-05-30T01:48:32.935Z,-4.05
2017-05-30T01:49:33.066Z,-4.05
2017-05-30T01:50:33.029Z,-4.05
2017-05-30T01:51:27.112Z,-4.05
2017-05-30T01:52:27.130Z,-4.05
2017-05-30T01:53:21.205Z,-4.05
2017-05-30T01:54:15.248Z,-4.05
2017-05-30T01:55:03.634Z,-4.05
2017-05-30T01:55:51.355Z,-4.05
2017-05-30T01:56:45.426Z,-4.05
2017-05-30T01:57:39.605Z,-4.05
2017-05-30T01:58:28.553Z,-4.05
2017-05-30T01:59:22.647Z,-4.05
2017-05-30T02:00:10.807Z,-4.05
2017-05-30T02:01:05.733Z,-4.05
2017-05-30T02:01:59.812Z,-4.05
2017-05-30T02:02:53.874Z,-4.05
2017-05-30T02:03:53.940Z,-4.05
2017-05-30T02:04:42.922Z,-4.05
2017-05-30T02:05:38.021Z,-4.05
2017-05-30T02:06:32.035Z,-4.05
2017-05-30T02:07:20.274Z,-4.05
2017-05-30T02:08:14.221Z,-4.05
2017-05-30T02:09:20.247Z,-4.05
2017-05-30T02:10:20.264Z,-4.05
2017-05-30T02:11:14.344Z,-4.05
2017-05-30T02:12:09.367Z,-4.05
2017-05-30T02:12:58.435Z,-4.05
2017-05-30T02:13:47.481Z,-4.05
2017-05-30T02:14:41.912Z,-4.05
2017-05-30T02:15:35.580Z,-4.05
2017-05-30T02:16:24.726Z,-4.05
2017-05-30T02:17:18.641Z,-4.05
2017-05-30T02:18:12.742Z,-4.05
2017-05-30T02:19:12.747Z,-4.05
2017-05-30T02:20:07.107Z,-4.05
2017-05-30T02:21:07.894Z,-4.05
2017-05-30T02:22:01.923Z,-4.05
2017-05-30T02:23:02.949Z,-4.05
2017-05-30T02:23:56.968Z,-4.05
2017-05-30T02:24:57.029Z,-4.05
2017-05-30T02:25:51.049Z,-4.05
2017-05-30T02:26:57.086Z,-4.05
2017-05-30T02:27:57.145Z,-4.05
2017-05-30T02:28:52.162Z,-4.05
2017-05-30T02:29:52.283Z,-4.05
2017-05-30T02:30:52.276Z,-4.05
2017-05-30T02:31:52.346Z,-4.05
2017-05-30T02:32:58.393Z,-4.05
2017-05-30T02:33:58.359Z,-4.05
2017-05-30T02:34:52.422Z,-4.05
2017-05-30T02:35:52.427Z,-4.05
2017-05-30T02:36:47.515Z,-4.05
2017-05-30T02:37:42.529Z,-4.05
2017-05-30T02:38:42.594Z,-4.05
2017-05-30T02:39:37.640Z,-4.05
2017-05-30T02:40:32.644Z,-4.05
2017-05-30T02:41:33.680Z,-4.05
2017-05-30T02:42:33.723Z,-4.05
2017-05-30T02:43:28.755Z,-4.05
2017-05-30T02:44:28.823Z,-4.05
2017-05-30T02:45:22.857Z,-4.05
2017-05-30T02:46:22.912Z,-4.05
2017-05-30T02:47:18.299Z,-4.05
2017-05-30T02:48:12.976Z,-4.05
2017-05-30T02:49:02.031Z,-4.05
2017-05-30T02:49:57.436Z,-4.05
2017-05-30T02:50:57.123Z,-4.05
2017-05-30T02:51:57.139Z,-4.05
2017-05-30T02:52:52.197Z,-4.05
2017-05-30T02:53:52.234Z,-4.05
2017-05-30T02:54:47.639Z,-4.05
2017-05-30T02:55:36.388Z,-4.05
2017-05-30T02:56:25.354Z,-4.05
2017-05-30T02:57:19.429Z,-4.05
2017-05-30T02:58:19.414Z,-4.05
2017-05-30T02:59:14.519Z,-4.05
2017-05-30T03:00:09.591Z,-4.05
2017-05-30T03:01:09.597Z,-4.05
2017-05-30T03:02:04.648Z,-4.05
2017-05-30T03:02:58.624Z,-4.05
2017-05-30T03:03:52.711Z,-4.05
2017-05-30T03:04:53.736Z,-4.05
2017-05-30T03:05:54.765Z,-4.05
2017-05-30T03:06:49.013Z,-4.05
2017-05-30T03:07:48.872Z,-4.05
2017-05-30T03:08:43.916Z,-4.05
2017-05-30T03:09:38.963Z,-4.05
2017-05-30T03:10:38.990Z,-4.05
2017-05-30T03:11:34.029Z,-4.05
2017-05-30T03:12:29.063Z,-4.05
2017-05-30T03:13:23.144Z,-4.05
2017-05-30T03:14:17.117Z,-4.05
2017-05-30T03:15:06.203Z,-4.05
2017-05-30T03:15:55.242Z,-4.05
2017-05-30T03:16:44.346Z,-4.05
2017-05-30T03:17:33.350Z,-4.05
2017-05-30T03:18:27.416Z,-4.05
2017-05-30T03:19:21.435Z,-4.05
2017-05-30T03:20:09.493Z,-4.05
2017-05-30T03:21:03.561Z,-4.05
2017-05-30T03:21:57.556Z,-4.05
2017-05-30T03:22:51.701Z,-4.05
2017-05-30T03:23:45.690Z,-4.05
2017-05-30T03:24:46.110Z,-4.05
2017-05-30T03:25:45.758Z,-4.05
2017-05-30T03:26:40.830Z,-4.06
2017-05-30T03:27:29.843Z,-4.06
2017-05-30T03:28:29.875Z,-4.06
2017-05-30T03:29:23.939Z,-4.06
2017-05-30T03:30:23.944Z,-4.06
2017-05-30T03:31:19.016Z,-4.06
2017-05-30T03:32:19.051Z,-4.06
2017-05-30T03:33:08.111Z,-4.06
2017-05-30T03:34:08.149Z,-4.06
2017-05-30T03:35:02.144Z,-4.06
2017-05-30T03:35:51.203Z,-4.06
2017-05-30T03:36:45.247Z,-4.06
2017-05-30T03:37:40.335Z,-4.06
2017-05-30T03:38:41.374Z,-4.06
2017-05-30T03:39:41.459Z,-4.06
2017-05-30T03:40:30.456Z,-4.06
2017-05-30T03:41:19.471Z,-4.06
2017-05-30T03:42:07.568Z,-4.06
2017-05-30T03:42:55.622Z,-4.06
2017-05-30T03:43:49.638Z,-4.06
2017-05-30T03:44:50.058Z,-4.06
2017-05-30T03:45:43.734Z,-4.06
2017-05-30T03:46:37.753Z,-4.06
2017-05-30T03:47:37.810Z,-4.06
2017-05-30T03:48:26.863Z,-4.06
2017-05-30T03:49:15.855Z,-4.06
2017-05-30T03:50:15.973Z,-4.06
2017-05-30T03:51:09.953Z,-4.06
2017-05-30T03:52:11.029Z,-4.06
2017-05-30T03:53:12.054Z,-4.06
2017-05-30T03:54:13.093Z,-4.06
2017-05-30T03:55:07.117Z,-4.06
2017-05-30T03:56:01.375Z,-4.06
2017-05-30T03:56:55.201Z,-4.06
2017-05-30T03:57:50.266Z,-4.06
2017-05-30T03:58:50.306Z,-4.06
2017-05-30T03:59:45.713Z,-4.06
2017-05-30T04:00:34.404Z,-4.06
2017-05-30T04:01:23.442Z,-4.06
2017-05-30T04:02:11.523Z,-4.06
2017-05-30T04:03:00.525Z,-4.06
2017-05-30T04:03:54.592Z,-4.06
2017-05-30T04:04:42.639Z,-4.06
2017-05-30T04:05:30.651Z,-4.06
2017-05-30T04:06:24.702Z,-4.06
2017-05-30T04:07:13.873Z,-4.06
2017-05-30T04:08:08.805Z,-4.06
2017-05-30T04:09:08.849Z,-4.06
2017-05-30T04:10:03.886Z,-4.06
2017-05-30T04:10:58.944Z,-4.06
2017-05-30T04:11:59.057Z,-4.06
2017-05-30T04:12:54.008Z,-4.06
2017-05-30T04:13:49.054Z,-4.06
2017-05-30T04:14:43.125Z,-4.06
2017-05-30T04:15:43.142Z,-4.06
2017-05-30T04:16:38.213Z,-4.06
2017-05-30T04:17:38.237Z,-4.06
2017-05-30T04:18:38.261Z,-4.06
2017-05-30T04:19:38.338Z,-4.06
2017-05-30T04:20:32.339Z,-4.06
2017-05-30T04:21:32.369Z,-4.06
2017-05-30T04:22:27.440Z,-4.06
2017-05-30T04:23:22.494Z,-4.06
2017-05-30T04:24:22.540Z,-4.06
2017-05-30T04:25:22.550Z,-4.06
2017-05-30T04:26:16.619Z,-4.06
2017-05-30T04:27:10.628Z,-4.06
2017-05-30T04:27:58.719Z,-4.06
2017-05-30T04:28:52.831Z,-4.06
2017-05-30T04:29:52.803Z,-4.06
2017-05-30T04:30:47.846Z,-4.06
2017-05-30T04:31:42.842Z,-4.06
2017-05-30T04:32:30.911Z,-4.06
2017-05-30T04:33:26.004Z,-4.06
2017-05-30T04:34:21.132Z,-4.06
2017-05-30T04:35:10.032Z,-4.06
2017-05-30T04:36:10.112Z,-4.06
2017-05-30T04:37:04.130Z,-4.06
2017-05-30T04:37:53.186Z,-4.06
2017-05-30T04:38:47.205Z,-4.06
2017-05-30T04:39:41.365Z,-4.06
2017-05-30T04:40:36.366Z,-4.06
2017-05-30T04:41:25.352Z,-4.06
2017-05-30T04:42:14.436Z,-4.06
2017-05-30T04:43:14.844Z,-4.06
2017-05-30T04:44:08.541Z,-4.06
2017-05-30T04:44:56.650Z,-4.06
2017-05-30T04:45:45.622Z,-4.06
2017-05-30T04:46:40.676Z,-4.06
2017-05-30T04:47:34.725Z,-4.06
2017-05-30T04:48:29.707Z,-4.06
2017-05-30T04:49:18.817Z,-4.06
2017-05-30T04:50:07.843Z,-4.06
2017-05-30T04:50:56.908Z,-4.06
2017-05-30T04:51:45.970Z,-4.06
2017-05-30T04:52:40.110Z,-4.06
2017-05-30T04:53:35.051Z,-4.06
2017-05-30T04:54:24.099Z,-4.06
2017-05-30T04:55:19.169Z,-4.06
2017-05-30T04:56:07.258Z,-4.06
2017-05-30T04:57:01.270Z,-4.06
2017-05-30T04:57:56.404Z,-4.06
2017-05-30T04:58:56.442Z,-4.06
2017-05-30T04:59:50.448Z,-4.06
2017-05-30T05:00:50.580Z,-4.06
2017-05-30T05:01:39.605Z,-4.06
2017-05-30T05:02:39.661Z,-4.06
2017-05-30T05:03:39.710Z,-4.06
2017-05-30T05:04:47.127Z,-4.06
2017-05-30T05:05:46.792Z,-4.06
2017-05-30T05:06:46.848Z,-4.05
2017-05-30T05:07:40.943Z,-4.06
2017-05-30T05:08:34.966Z,-4.06
2017-05-30T05:09:29.040Z,-4.06
2017-05-30T05:10:23.114Z,-4.06
2017-05-30T05:11:12.359Z,-4.06
2017-05-30T05:12:12.541Z,-4.06
2017-05-30T05:13:06.264Z,-4.06
2017-05-30T05:14:00.356Z,-4.06
2017-05-30T05:15:00.358Z,-4.06
2017-05-30T05:15:54.424Z,-4.06
2017-05-30T05:16:54.455Z,-4.06
2017-05-30T05:17:48.859Z,-4.06
2017-05-30T05:18:49.596Z,-4.05
2017-05-30T05:19:44.642Z,-4.05
2017-05-30T05:20:40.082Z,-4.05
2017-05-30T05:21:33.829Z,-4.05
2017-05-30T05:22:27.848Z,-4.05
2017-05-30T05:23:17.234Z,-4.05
2017-05-30T05:24:06.014Z,-4.05
2017-05-30T05:24:55.066Z,-4.04
2017-05-30T05:25:55.133Z,-4.04
2017-05-30T05:26:49.179Z,-4.04
2017-05-30T05:27:49.233Z,-4.04
2017-05-30T05:28:38.629Z,-4.04
2017-05-30T05:29:33.422Z,-4.04
2017-05-30T05:30:21.474Z,-4.03
2017-05-30T05:31:21.552Z,-4.03
2017-05-30T05:32:16.620Z,4.23
2017-05-30T05:33:16.701Z,0.20
2017-05-30T05:34:17.050Z,0.05
2017-05-30T05:35:16.803Z,15.57
2017-05-30T05:36:12.058Z,13.69
2017-05-30T05:37:07.013Z,9.81
2017-05-30T05:37:55.033Z,20.95
2017-05-30T05:38:44.063Z,20.73
2017-05-30T05:39:39.164Z,16.39
2017-05-30T05:40:28.216Z,17.77
2017-05-30T05:41:22.276Z,23.17
2017-05-30T05:42:16.339Z,16.87
2017-05-30T05:43:10.456Z,13.54
2017-05-30T05:44:04.551Z,16.00
2017-05-30T05:44:53.573Z,10.08
2017-05-30T05:45:42.658Z,2.08
2017-05-30T05:46:37.749Z,-2.61
2017-05-30T05:47:32.761Z,-4.05
2017-05-30T05:48:26.871Z,-4.05
2017-05-30T05:49:20.927Z,-4.05
2017-05-30T05:50:09.141Z,-4.06
2017-05-30T05:51:03.081Z,-4.06
2017-05-30T05:51:52.157Z,-4.06
2017-05-30T05:52:46.249Z,-4.06
2017-05-30T05:53:34.266Z,-4.05
2017-05-30T05:54:34.361Z,-4.05
2017-05-30T05:55:34.471Z,-4.05
2017-05-30T05:56:34.458Z,-4.05
2017-05-30T05:57:34.569Z,-4.04
2017-05-30T05:58:28.661Z,-2.44
2017-05-30T05:59:22.698Z,-0.12
2017-05-30T06:00:10.768Z,-0.59
2017-05-30T06:01:04.848Z,7.34
2017-05-30T06:01:53.927Z,17.64
2017-05-30T06:02:42.027Z,25.34
2017-05-30T06:03:37.029Z,26.08
2017-05-30T06:04:31.141Z,31.18
2017-05-30T06:05:26.192Z,20.04
2017-05-30T06:06:20.354Z,16.98
2017-05-30T06:07:14.405Z,14.11
2017-05-30T06:08:08.495Z,10.24
2017-05-30T06:09:03.448Z,9.03
2017-05-30T06:09:52.920Z,8.65
2017-05-30T06:10:47.656Z,22.82
2017-05-30T06:11:35.704Z,19.17
2017-05-30T06:12:30.781Z,17.36
2017-05-30T06:13:24.846Z,25.85
2017-05-30T06:14:19.939Z,24.88
2017-05-30T06:15:20.008Z,22.27
2017-05-30T06:16:15.056Z,28.06
2017-05-30T06:17:04.197Z,25.00
2017-05-30T06:17:58.216Z,21.51
2017-05-30T06:18:52.262Z,24.58
2017-05-30T06:19:47.756Z,23.14
2017-05-30T06:20:36.646Z,29.22
2017-05-30T06:21:30.525Z,28.27
2017-05-30T06:22:30.671Z,28.91
2017-05-30T06:23:18.760Z,30.25
2017-05-30T06:24:06.707Z,34.82
2017-05-30T06:24:54.765Z,29.49
2017-05-30T06:25:49.894Z,30.39
2017-05-30T06:26:44.977Z,28.62
2017-05-30T06:27:34.082Z,30.75
2017-05-30T06:28:34.139Z,33.01
2017-05-30T06:29:28.165Z,29.76
2017-05-30T06:30:17.226Z,24.74
2017-05-30T06:31:06.388Z,27.13
2017-05-30T06:32:00.429Z,25.73
2017-05-30T06:33:00.478Z,24.89
2017-05-30T06:33:55.684Z,27.91
2017-05-30T06:34:51.194Z,39.69
2017-05-30T06:35:45.735Z,42.94
2017-05-30T06:36:40.771Z,36.40
2017-05-30T06:37:40.851Z,41.97
2017-05-30T06:38:35.114Z,35.92
2017-05-30T06:39:28.970Z,38.27
2017-05-30T06:40:24.035Z,38.41
2017-05-30T06:41:18.142Z,39.52
2017-05-30T06:42:13.421Z,45.43
2017-05-30T06:43:13.472Z,42.66
2017-05-30T06:44:14.660Z,47.12
2017-05-30T06:45:14.452Z,45.96
2017-05-30T06:46:14.518Z,44.98
2017-05-30T06:47:08.557Z,45.78
2017-05-30T06:47:56.648Z,44.08
2017-05-30T06:48:50.726Z,44.92
2017-05-30T06:49:39.844Z,41.12
2017-05-30T06:50:28.949Z,37.54
2017-05-30T06:51:17.070Z,36.92
2017-05-30T06:52:11.074Z,33.09
2017-05-30T06:53:06.176Z,29.69
2017-05-30T06:54:06.177Z,36.24
2017-05-30T06:55:06.303Z,32.38
2017-05-30T06:56:12.352Z,26.22
2017-05-30T06:57:06.461Z,23.06
2017-05-30T06:58:00.517Z,27.25
2017-05-30T06:58:54.595Z,21.69
2017-05-30T06:59:49.024Z,16.74
2017-05-30T07:00:43.047Z,17.40
2017-05-30T07:01:36.754Z,13.72
2017-05-30T07:02:31.846Z,15.59
2017-05-30T07:03:25.865Z,9.76
2017-05-30T07:04:14.962Z,5.52
2017-05-30T07:05:15.048Z,8.46
2017-05-30T07:06:09.327Z,12.61
2017-05-30T07:07:09.159Z,15.51
2017-05-30T07:08:09.260Z,14.00
2017-05-30T07:08:58.271Z,12.57
2017-05-30T07:09:58.364Z,8.14
2017-05-30T07:10:53.438Z,3.49
2017-05-30T07:11:48.519Z,2.47
2017-05-30T07:12:42.637Z,5.21
2017-05-30T07:13:36.658Z,12.19
2017-05-30T07:14:30.733Z,14.26
2017-05-30T07:15:25.780Z,6.67
2017-05-30T07:16:14.889Z,8.68
2017-05-30T07:17:08.950Z,9.98
2017-05-30T07:17:58.030Z,4.66
2017-05-30T07:18:59.084Z,3.41
2017-05-30T07:19:53.532Z,0.97
2017-05-30T07:20:42.193Z,7.98
2017-05-30T07:21:37.255Z,4.18
2017-05-30T07:22:32.342Z,1.67
2017-05-30T07:23:32.381Z,-2.53
2017-05-30T07:24:27.459Z,-1.65
2017-05-30T07:25:27.577Z,8.59
2017-05-30T07:26:21.667Z,6.05
2017-05-30T07:27:15.684Z,8.22
2017-05-30T07:28:04.731Z,4.36
2017-05-30T07:28:59.755Z,19.27
2017-05-30T07:29:54.291Z,18.45
2017-05-30T07:30:42.936Z,27.27
2017-05-30T07:31:32.308Z,28.62
2017-05-30T07:32:21.121Z,26.26
2017-05-30T07:33:21.168Z,27.16
2017-05-30T07:34:15.259Z,21.13
2017-05-30T07:35:09.682Z,16.76
2017-05-30T07:36:03.412Z,19.81
2017-05-30T07:36:58.447Z,25.14
2017-05-30T07:37:47.867Z,22.72
2017-05-30T07:38:35.641Z,26.98
2017-05-30T07:39:29.730Z,33.90
2017-05-30T07:40:29.850Z,33.69
2017-05-30T07:41:23.931Z,40.46
2017-05-30T07:42:17.911Z,42.18
2017-05-30T07:43:12.158Z,38.94
2017-05-30T07:44:06.072Z,42.77
2017-05-30T07:44:55.438Z,42.02
2017-05-30T07:45:50.251Z,44.13
2017-05-30T07:46:39.308Z,42.86
2017-05-30T07:47:34.353Z,44.13
2017-05-30T07:48:28.453Z,43.15
2017-05-30T07:49:28.552Z,44.57
2017-05-30T07:50:17.895Z,42.10
2017-05-30T07:51:06.659Z,42.54
2017-05-30T07:52:00.763Z,45.36
2017-05-30T07:52:49.825Z,46.67
2017-05-30T07:53:38.954Z,45.46
2017-05-30T07:54:33.062Z,40.38
2017-05-30T07:55:27.076Z,47.29
2017-05-30T07:56:21.170Z,47.46
2017-05-30T07:57:21.248Z,48.65
2017-05-30T07:58:15.291Z,50.95
2017-05-30T07:59:09.754Z,50.58
2017-05-30T07:59:57.535Z,50.58
2017-05-30T08:00:46.633Z,51.33
2017-05-30T08:01:41.625Z,51.09
2017-05-30T08:02:35.694Z,50.06
2017-05-30T08:03:36.754Z,50.75
2017-05-30T08:04:25.860Z,50.56
2017-05-30T08:05:20.948Z,49.77
2017-05-30T08:06:10.015Z,50.82
2017-05-30T08:07:05.117Z,49.63
2017-05-30T08:08:05.161Z,49.20
2017-05-30T08:09:00.619Z,50.33
2017-05-30T08:09:48.443Z,50.20
2017-05-30T08:10:48.698Z,50.81
2017-05-30T08:11:42.737Z,50.60
2017-05-30T08:12:36.790Z,50.76
2017-05-30T08:13:30.919Z,51.13
2017-05-30T08:14:26.074Z,50.12
2017-05-30T08:15:20.093Z,50.90
2017-05-30T08:16:20.114Z,50.94
2017-05-30T08:17:21.190Z,50.93
2017-05-30T08:18:21.311Z,51.16
2017-05-30T08:19:09.483Z,49.60
2017-05-30T08:20:09.501Z,50.81
2017-05-30T08:21:09.563Z,51.54
2017-05-30T08:22:09.602Z,50.54
2017-05-30T08:23:03.785Z,50.68
2017-05-30T08:23:57.801Z,50.78
2017-05-30T08:24:46.959Z,51.05
2017-05-30T08:25:42.003Z,50.26
2017-05-30T08:26:36.042Z,50.89
2017-05-30T08:27:25.098Z,50.48
2017-05-30T08:28:13.202Z,50.44
2017-05-30T08:29:02.304Z,51.34
2017-05-30T08:29:56.485Z,51.32
2017-05-30T08:30:50.185Z,50.93
2017-05-30T08:31:45.264Z,50.59
2017-05-30T08:32:34.401Z,50.38
2017-05-30T08:33:28.431Z,50.75
2017-05-30T08:34:17.805Z,50.83
2017-05-30T08:35:12.714Z,50.35
2017-05-30T08:36:06.950Z,51.40
2017-05-30T08:36:56.058Z,51.10
2017-05-30T08:37:56.162Z,51.30
2017-05-30T08:38:49.973Z,51.10
2017-05-30T08:39:45.041Z,51.40
2017-05-30T08:40:39.221Z,51.00
2017-05-30T08:41:28.336Z,50.76
2017-05-30T08:42:22.314Z,51.04
2017-05-30T08:43:16.680Z,50.89
2017-05-30T08:44:05.444Z,50.65
2017-05-30T08:44:59.806Z,51.15
2017-05-30T08:45:48.910Z,51.33
2017-05-30T08:46:42.728Z,51.09
2017-05-30T08:47:36.762Z,50.50
2017-05-30T08:48:30.871Z,49.79
2017-05-30T08:49:26.065Z,51.37
2017-05-30T08:50:15.051Z,51.92
2017-05-30T08:51:10.414Z,51.28
2017-05-30T08:52:04.175Z,52.04
2017-05-30T08:52:53.262Z,52.01
2017-05-30T08:53:47.669Z,50.92
2017-05-30T08:54:42.563Z,51.51
2017-05-30T08:55:37.589Z,51.46
2017-05-30T08:56:26.713Z,50.67
2017-05-30T08:57:15.693Z,49.37
2017-05-30T08:58:15.735Z,50.88
2017-05-30T08:59:10.882Z,48.82
2017-05-30T08:59:59.955Z,47.65
2017-05-30T09:00:54.106Z,51.07
2017-05-30T09:01:48.112Z,51.07
2017-05-30T09:02:43.505Z,51.09
2017-05-30T09:03:38.501Z,50.92
2017-05-30T09:04:32.730Z,51.12
2017-05-30T09:05:21.526Z,50.73
2017-05-30T09:06:10.512Z,51.17
2017-05-30T09:07:05.569Z,51.45
2017-05-30T09:08:05.928Z,51.19
2017-05-30T09:08:54.817Z,51.38
2017-05-30T09:09:49.859Z,51.05
2017-05-30T09:10:39.274Z,49.93
2017-05-30T09:11:39.295Z,49.65
2017-05-30T09:12:27.411Z,50.44
2017-05-30T09:13:15.486Z,50.04
2017-05-30T09:14:09.521Z,49.89
2017-05-30T09:14:58.072Z,49.43
2017-05-30T09:15:45.731Z,49.03
2017-05-30T09:16:40.847Z,50.69
2017-05-30T09:17:34.931Z,51.10
2017-05-30T09:18:28.946Z,51.25
2017-05-30T09:19:23.016Z,50.49
2017-05-30T09:20:18.196Z,50.37
2017-05-30T09:21:13.170Z,49.95
2017-05-30T09:22:08.383Z,50.66
2017-05-30T09:23:02.394Z,51.10
2017-05-30T09:23:57.490Z,51.13
2017-05-30T09:24:57.617Z,51.31
2017-05-30T09:25:57.721Z,51.31
2017-05-30T09:26:58.745Z,50.99
2017-05-30T09:27:53.790Z,51.49
2017-05-30T09:28:53.871Z,51.82
2017-05-30T09:29:55.061Z,51.33
2017-05-30T09:30:49.012Z,51.21
2017-05-30T09:31:44.207Z,51.40
2017-05-30T09:32:38.261Z,49.74
2017-05-30T09:33:32.330Z,51.82
2017-05-30T09:34:26.407Z,51.41
2017-05-30T09:35:20.484Z,50.56
2017-05-30T09:36:14.512Z,49.64
2017-05-30T09:37:08.670Z,48.59
2017-05-30T09:38:02.733Z,49.10
2017-05-30T09:38:56.817Z,47.76
2017-05-30T09:39:50.877Z,48.81
2017-05-30T09:40:38.919Z,50.74
2017-05-30T09:41:27.973Z,51.57
2017-05-30T09:42:17.157Z,52.24
2017-05-30T09:43:16.962Z,51.42
2017-05-30T09:44:06.059Z,51.29
2017-05-30T09:45:00.236Z,50.92
2017-05-30T09:45:55.335Z,50.10
2017-05-30T09:46:49.300Z,50.72
2017-05-30T09:47:44.359Z,48.32
2017-05-30T09:48:38.569Z,51.77
2017-05-30T09:49:26.510Z,51.14
2017-05-30T09:50:15.793Z,51.02
2017-05-30T09:51:09.668Z,48.93
2017-05-30T09:51:58.011Z,50.77
2017-05-30T09:52:52.129Z,49.98
2017-05-30T09:53:45.941Z,48.43
2017-05-30T09:54:41.038Z,50.92
2017-05-30T09:55:35.069Z,49.86
2017-05-30T09:56:35.142Z,50.56
2017-05-30T09:57:29.212Z,52.15
2017-05-30T09:58:24.355Z,51.43
2017-05-30T09:59:13.765Z,52.13
2017-05-30T10:00:01.507Z,50.31
2017-05-30T10:00:55.572Z,51.04
2017-05-30T10:01:49.668Z,51.58
2017-05-30T10:02:49.702Z,50.41
2017-05-30T10:03:38.848Z,50.36
2017-05-30T10:04:32.932Z,51.17
2017-05-30T10:05:20.947Z,51.19
2017-05-30T10:06:21.071Z,51.77
2017-05-30T10:07:10.145Z,51.19
2017-05-30T10:07:59.247Z,51.65
2017-05-30T10:08:48.619Z,50.82
2017-05-30T10:09:48.430Z,48.31
2017-05-30T10:10:42.477Z,48.90
2017-05-30T10:11:31.788Z,47.08
2017-05-30T10:12:25.653Z,51.50
2017-05-30T10:13:14.708Z,48.68
2017-05-30T10:14:04.070Z,50.79
2017-05-30T10:15:03.881Z,49.57
2017-05-30T10:15:58.212Z,51.41
2017-05-30T10:17:04.280Z,51.11
2017-05-30T10:17:59.196Z,50.88
2017-05-30T10:18:48.400Z,50.79
2017-05-30T10:19:42.318Z,50.97
2017-05-30T10:20:42.330Z,51.28
2017-05-30T10:21:42.442Z,50.68
2017-05-30T10:22:37.573Z,47.76
2017-05-30T10:23:31.631Z,47.94
2017-05-30T10:24:20.668Z,48.70
2017-05-30T10:25:14.761Z,48.46
2017-05-30T10:26:09.872Z,46.03
2017-05-30T10:27:03.930Z,49.73
2017-05-30T10:27:57.956Z,52.13
2017-05-30T10:28:52.311Z,52.31
2017-05-30T10:29:41.162Z,50.81
2017-05-30T10:30:30.220Z,51.48
2017-05-30T10:31:19.408Z,51.69
2017-05-30T10:32:14.629Z,51.84
2017-05-30T10:33:03.738Z,50.72
2017-05-30T10:33:57.555Z,51.26
2017-05-30T10:34:52.721Z,50.37
2017-05-30T10:35:41.835Z,51.72
2017-05-30T10:36:37.090Z,51.30
2017-05-30T10:37:30.917Z,50.83
2017-05-30T10:38:25.953Z,50.86
2017-05-30T10:39:15.081Z,50.41
2017-05-30T10:40:09.169Z,51.15
2017-05-30T10:40:58.477Z,51.09
2017-05-30T10:41:53.354Z,51.31
2017-05-30T10:42:42.352Z,50.67
2017-05-30T10:43:31.476Z,50.76
2017-05-30T10:44:19.549Z,51.06
2017-05-30T10:45:07.725Z,51.03
2017-05-30T10:46:02.134Z,50.28
2017-05-30T10:46:55.998Z,50.63
2017-05-30T10:47:50.127Z,50.27
2017-05-30T10:48:50.200Z,49.41
2017-05-30T10:49:50.065Z,49.87
2017-05-30T10:50:45.331Z,49.79
2017-05-30T10:51:40.546Z,48.09
2017-05-30T10:52:28.524Z,48.58
2017-05-30T10:53:22.356Z,46.78
2017-05-30T10:54:22.625Z,46.25
2017-05-30T10:55:16.781Z,44.95
2017-05-30T10:56:05.796Z,45.14
2017-05-30T10:56:54.976Z,47.26
2017-05-30T10:57:48.954Z,46.94
2017-05-30T10:58:38.111Z,47.30
2017-05-30T10:59:27.194Z,47.82
2017-05-30T11:00:21.386Z,47.55
2017-05-30T11:01:10.494Z,49.11
2017-05-30T11:02:04.596Z,48.84
2017-05-30T11:02:53.648Z,47.48
2017-05-30T11:03:48.690Z,48.68
2017-05-30T11:04:43.730Z,47.64
2017-05-30T11:05:37.878Z,47.89
2017-05-30T11:06:27.014Z,49.19
2017-05-30T11:07:15.955Z,49.32
2017-05-30T11:08:10.887Z,49.99
2017-05-30T11:09:05.066Z,51.28
2017-05-30T11:09:59.377Z,51.31
2017-05-30T11:11:00.286Z,51.52
2017-05-30T11:11:55.222Z,51.25
2017-05-30T11:12:49.235Z,50.06
2017-05-30T11:13:43.357Z,50.18
2017-05-30T11:14:37.545Z,49.60
2017-05-30T11:15:37.537Z,48.48
2017-05-30T11:16:32.572Z,49.33
2017-05-30T11:17:32.653Z,51.09
2017-05-30T11:18:27.387Z,51.42
2017-05-30T11:19:26.845Z,51.41
2017-05-30T11:20:14.899Z,51.51
2017-05-30T11:21:15.017Z,51.75
2017-05-30T11:22:09.260Z,51.23
2017-05-30T11:22:58.164Z,49.28
2017-05-30T11:23:47.572Z,48.30
2017-05-30T11:24:47.335Z,50.15
2017-05-30T11:25:36.431Z,49.97
2017-05-30T11:26:30.510Z,47.57
2017-05-30T11:27:24.682Z,46.05
2017-05-30T11:28:19.649Z,46.81
2017-05-30T11:29:13.978Z,49.38
2017-05-30T11:30:13.855Z,48.69
2017-05-30T11:31:13.860Z,49.37
2017-05-30T11:32:07.978Z,44.50
2017-05-30T11:33:08.031Z,45.97
2017-05-30T11:34:08.149Z,47.25
2017-05-30T11:35:08.222Z,48.05
2017-05-30T11:35:57.273Z,40.97
2017-05-30T11:36:51.381Z,46.37
2017-05-30T11:37:46.444Z,45.05
2017-05-30T11:38:46.548Z,47.73